createdAt,value
2023-03-03T00:01:38.067Z,39.40
2023-03-03T00:04:11.717Z,39.50
2023-03-03T00:06:46.217Z,38.10
2023-03-03T00:09:20.000Z,36.90
2023-03-03T00:11:59.777Z,38.10
2023-03-03T00:14:34.806Z,39.30
2023-03-03T00:17:25.805Z,39.70
2023-03-03T00:19:59.810Z,39.90
2023-03-03T00:22:38.770Z,38.80
2023-03-03T00:25:30.498Z,38.80
2023-03-03T00:28:18.068Z,39.00
2023-03-03T00:30:52.269Z,40.70
2023-03-03T00:33:33.156Z,37.80
2023-03-03T00:36:32.092Z,37.30
2023-03-03T00:39:28.207Z,36.10
2023-03-03T00:42:12.891Z,38.60
2023-03-03T00:44:47.923Z,39.10
2023-03-03T00:47:31.950Z,41.20
2023-03-03T00:53:17.624Z,37.80
2023-03-03T00:55:53.534Z,35.70
2023-03-03T00:58:28.116Z,37.30
2023-03-03T01:01:02.696Z,35.60
2023-03-03T01:03:44.983Z,35.30
2023-03-03T01:06:18.559Z,35.40
2023-03-03T01:08:51.811Z,35.70
2023-03-03T01:11:28.966Z,36.10
2023-03-03T01:14:02.542Z,36.10
2023-03-03T01:16:36.531Z,33.80
2023-03-03T01:19:10.316Z,34.90
2023-03-03T01:21:44.033Z,33.80
2023-03-03T01:24:18.024Z,33.20
2023-03-03T01:26:51.551Z,34.80
2023-03-03T01:29:25.429Z,36.20
2023-03-03T01:31:59.075Z,34.80
2023-03-03T01:34:32.959Z,33.80
2023-03-03T01:37:06.829Z,33.10
2023-03-03T01:39:40.425Z,31.60
2023-03-03T01:42:14.222Z,31.70
2023-03-03T01:44:48.557Z,30.70
2023-03-03T01:47:26.666Z,29.10
2023-03-03T01:50:04.215Z,30.40
2023-03-03T01:52:40.780Z,31.90
2023-03-03T01:55:17.991Z,31.80
2023-03-03T01:57:58.914Z,31.70
2023-03-03T02:00:33.439Z,32.00
2023-03-03T02:03:07.744Z,32.80
2023-03-03T02:05:43.717Z,31.10
2023-03-03T02:08:23.849Z,30.90
2023-03-03T02:10:58.891Z,30.90
2023-03-03T02:13:33.144Z,31.40
2023-03-03T02:16:07.729Z,32.60
2023-03-03T02:18:41.622Z,29.20
2023-03-03T02:21:17.305Z,30.10
2023-03-03T02:23:56.514Z,31.40
2023-03-03T02:26:31.636Z,29.00
2023-03-03T02:29:08.303Z,29.80
2023-03-03T02:31:43.473Z,29.90
2023-03-03T02:34:17.149Z,29.50
2023-03-03T02:36:50.875Z,29.70
2023-03-03T02:39:30.434Z,29.60
2023-03-03T02:42:08.915Z,29.10
2023-03-03T02:44:56.037Z,29.20
2023-03-03T02:47:30.750Z,32.70
2023-03-03T02:50:04.654Z,33.10
2023-03-03T02:52:38.384Z,31.50
2023-03-03T02:55:13.855Z,31.50
2023-03-03T02:57:47.494Z,32.90
2023-03-03T03:00:21.902Z,30.20
2023-03-03T03:02:55.536Z,32.90
2023-03-03T03:05:30.277Z,32.80
2023-03-03T03:08:03.969Z,32.90
2023-03-03T03:10:38.357Z,33.70
2023-03-03T03:13:12.340Z,31.20
2023-03-03T03:15:48.905Z,33.90
2023-03-03T03:18:23.514Z,32.00
2023-03-03T03:20:57.378Z,33.40
2023-03-03T03:23:31.601Z,31.00
2023-03-03T03:26:06.288Z,31.60
2023-03-03T03:28:40.565Z,31.70
2023-03-03T03:31:14.602Z,33.60
2023-03-03T03:33:49.324Z,30.20
2023-03-03T03:36:23.513Z,31.50
2023-03-03T03:38:58.258Z,32.10
2023-03-03T03:41:32.559Z,30.60
2023-03-03T03:44:06.361Z,32.10
2023-03-03T03:46:40.237Z,29.70
2023-03-03T03:49:14.408Z,31.50
2023-03-03T03:51:48.049Z,31.40
2023-03-03T03:54:23.130Z,31.70
2023-03-03T03:56:57.604Z,32.70
2023-03-03T03:59:31.118Z,31.70
2023-03-03T04:02:04.754Z,31.60
2023-03-03T04:04:38.465Z,31.70
2023-03-03T04:07:13.264Z,30.40
2023-03-03T04:09:46.880Z,30.90
2023-03-03T04:12:20.453Z,30.40
2023-03-03T04:14:54.176Z,29.50
2023-03-03T04:17:27.818Z,30.40
2023-03-03T04:20:02.660Z,32.10
2023-03-03T04:22:37.428Z,30.90
2023-03-03T04:25:14.911Z,29.90
2023-03-03T04:27:49.290Z,32.50
2023-03-03T04:30:24.735Z,32.00
2023-03-03T04:33:01.163Z,32.30
2023-03-03T04:35:35.079Z,31.40
2023-03-03T04:38:09.288Z,32.40
2023-03-03T04:40:43.816Z,32.00
2023-03-03T04:43:18.483Z,34.00
2023-03-03T04:45:52.527Z,32.30
2023-03-03T04:48:26.427Z,34.10
2023-03-03T04:51:00.672Z,32.60
2023-03-03T04:53:34.654Z,33.10
2023-03-03T04:56:08.811Z,32.70
2023-03-03T04:58:42.742Z,30.80
2023-03-03T05:01:16.731Z,32.60
2023-03-03T05:03:50.451Z,34.50
2023-03-03T05:06:24.846Z,35.10
2023-03-03T05:08:58.211Z,33.50
2023-03-03T05:11:32.855Z,32.90
2023-03-03T05:14:08.568Z,35.30
2023-03-03T05:16:42.486Z,35.60
2023-03-03T05:19:16.799Z,34.20
2023-03-03T05:21:50.212Z,34.90
2023-03-03T05:24:24.330Z,34.90
2023-03-03T05:26:57.795Z,38.00
2023-03-03T05:29:32.002Z,38.90
2023-03-03T05:32:05.749Z,34.90
2023-03-03T05:34:39.644Z,39.50
2023-03-03T05:37:13.700Z,38.00
2023-03-03T05:39:47.516Z,40.30
2023-03-03T05:42:20.886Z,40.90
2023-03-03T05:44:54.935Z,37.90
2023-03-03T05:47:28.954Z,38.70
2023-03-03T05:50:03.150Z,39.20
2023-03-03T05:52:36.861Z,36.80
2023-03-03T05:55:12.254Z,38.70
2023-03-03T05:57:45.718Z,38.90
2023-03-03T06:00:21.340Z,39.30
2023-03-03T06:02:55.316Z,37.00
2023-03-03T06:05:29.345Z,38.30
2023-03-03T06:08:02.971Z,35.20
2023-03-03T06:10:36.789Z,37.60
2023-03-03T06:13:10.951Z,37.10
2023-03-03T06:15:45.605Z,36.60
2023-03-03T06:18:19.987Z,33.60
2023-03-03T06:20:56.841Z,35.20
2023-03-03T06:23:30.609Z,35.80
2023-03-03T06:26:04.322Z,35.40
2023-03-03T06:28:37.710Z,36.80
2023-03-03T06:31:11.602Z,35.90
2023-03-03T06:33:45.278Z,33.40
2023-03-03T06:36:18.709Z,29.60
2023-03-03T06:38:52.435Z,29.30
2023-03-03T06:41:25.670Z,30.40
2023-03-03T06:44:00.665Z,28.10
2023-03-03T06:46:34.409Z,30.50
2023-03-03T06:49:07.839Z,28.90
2023-03-03T06:51:44.228Z,26.60
2023-03-03T06:54:20.593Z,28.20
2023-03-03T06:56:59.784Z,25.30
2023-03-03T06:59:33.887Z,26.80
2023-03-03T07:02:18.820Z,24.50
2023-03-03T07:04:55.099Z,25.80
2023-03-03T07:07:29.654Z,24.10
2023-03-03T07:10:09.658Z,24.50
2023-03-03T07:12:43.371Z,23.30
2023-03-03T07:15:22.247Z,24.00
2023-03-03T07:17:59.977Z,24.80
2023-03-03T07:20:37.646Z,23.20
2023-03-03T07:23:22.934Z,23.60
2023-03-03T07:25:56.891Z,22.50
2023-03-03T07:28:34.884Z,25.10
2023-03-03T07:31:27.742Z,25.30
2023-03-03T07:34:03.382Z,22.70
2023-03-03T07:36:39.288Z,25.00
2023-03-03T07:39:30.046Z,25.90
2023-03-03T07:42:22.528Z,23.00
2023-03-03T07:45:02.378Z,23.40
2023-03-03T07:47:39.442Z,24.10
2023-03-03T07:50:24.914Z,24.00
2023-03-03T07:53:00.443Z,22.30
2023-03-03T07:55:38.661Z,24.20
2023-03-03T07:58:25.415Z,25.60
2023-03-03T08:01:28.305Z,21.50
2023-03-03T08:04:01.950Z,23.00
2023-03-03T08:06:45.345Z,24.00
2023-03-03T08:09:44.411Z,24.60
2023-03-03T08:12:33.402Z,23.30
2023-03-03T08:15:23.133Z,22.90
2023-03-03T08:17:57.871Z,24.10
2023-03-03T08:20:51.712Z,22.10
2023-03-03T08:23:25.529Z,22.30
2023-03-03T08:25:59.471Z,25.30
2023-03-03T08:28:33.275Z,23.00
2023-03-03T08:31:18.505Z,24.50
2023-03-03T08:33:59.142Z,23.70
2023-03-03T08:36:34.678Z,22.60
2023-03-03T08:39:09.787Z,21.90
2023-03-03T08:41:44.812Z,23.30
2023-03-03T08:44:19.924Z,23.20
2023-03-03T08:46:53.762Z,22.30
2023-03-03T08:49:27.431Z,20.70
2023-03-03T08:52:01.120Z,21.20
2023-03-03T08:54:35.398Z,21.50
2023-03-03T08:57:09.129Z,19.60
2023-03-03T08:59:43.147Z,22.60
2023-03-03T09:02:18.182Z,22.80
2023-03-03T09:04:52.254Z,23.50
2023-03-03T09:07:25.780Z,22.50
2023-03-03T09:09:59.407Z,23.40
2023-03-03T09:12:36.839Z,25.90
2023-03-03T09:15:20.817Z,25.30
2023-03-03T09:17:54.834Z,24.20
2023-03-03T09:20:40.506Z,26.60
2023-03-03T09:23:36.066Z,23.60
2023-03-03T09:26:31.387Z,26.00
2023-03-03T09:29:20.747Z,24.90
2023-03-03T09:31:56.052Z,22.90
2023-03-03T09:34:42.698Z,22.30
2023-03-03T09:37:24.983Z,25.70
2023-03-03T09:39:59.215Z,23.20
2023-03-03T09:42:53.377Z,22.90
2023-03-03T09:45:55.125Z,23.60
2023-03-03T09:48:47.512Z,20.20
2023-03-03T09:51:37.099Z,21.80
2023-03-03T09:54:24.543Z,20.30
2023-03-03T09:57:07.580Z,20.20
2023-03-03T10:00:03.652Z,20.90
2023-03-03T10:03:00.968Z,23.30
2023-03-03T10:05:45.539Z,22.60
2023-03-03T10:08:39.850Z,23.70
2023-03-03T10:11:24.857Z,20.10
2023-03-03T10:14:20.598Z,20.50
2023-03-03T10:17:15.262Z,21.90
2023-03-03T10:20:00.869Z,21.40
2023-03-03T10:22:45.446Z,20.10
2023-03-03T10:25:30.202Z,20.20
2023-03-03T10:28:32.939Z,20.90
2023-03-03T10:31:20.736Z,22.80
2023-03-03T10:34:00.753Z,23.60
2023-03-03T10:36:43.452Z,22.00
2023-03-03T10:39:35.254Z,21.50
2023-03-03T10:42:21.321Z,21.90
2023-03-03T10:45:20.194Z,24.00
2023-03-03T10:48:24.395Z,21.40
2023-03-03T10:51:07.604Z,22.10
2023-03-03T10:53:54.528Z,22.70
2023-03-03T10:56:52.177Z,20.60
2023-03-03T10:59:43.112Z,24.60
2023-03-03T11:02:24.939Z,22.80
2023-03-03T11:05:34.655Z,22.20
2023-03-03T11:08:14.612Z,21.90
2023-03-03T11:10:58.719Z,18.10
2023-03-03T11:13:42.812Z,17.50
2023-03-03T11:16:37.712Z,17.60
2023-03-03T11:19:30.509Z,15.80
2023-03-03T11:22:19.539Z,16.60
2023-03-03T11:25:03.968Z,17.20
2023-03-03T11:28:09.325Z,17.20
2023-03-03T11:31:06.720Z,17.30
2023-03-03T11:33:52.490Z,16.70
2023-03-03T11:36:35.076Z,16.40
2023-03-03T11:39:13.561Z,15.20
2023-03-03T11:42:01.368Z,15.60
2023-03-03T11:44:39.920Z,17.00
2023-03-03T11:47:21.101Z,16.80
2023-03-03T11:49:59.395Z,15.60
2023-03-03T11:52:46.278Z,16.40
2023-03-03T11:55:26.925Z,15.60
2023-03-03T11:58:08.691Z,15.60
2023-03-03T12:00:50.067Z,16.70
2023-03-03T12:03:32.304Z,16.30
2023-03-03T12:06:19.885Z,16.70
2023-03-03T12:09:28.963Z,15.80
2023-03-03T12:12:08.877Z,15.50
2023-03-03T12:15:02.483Z,13.70
2023-03-03T12:17:55.919Z,14.40
2023-03-03T12:20:39.890Z,14.40
2023-03-03T12:23:26.666Z,17.10
2023-03-03T12:26:06.795Z,14.80
2023-03-03T12:28:44.456Z,15.70
2023-03-03T12:31:31.283Z,16.40
2023-03-03T12:34:14.087Z,16.80
2023-03-03T12:37:17.593Z,15.00
2023-03-03T12:40:05.152Z,15.30
2023-03-03T12:42:52.944Z,14.70
2023-03-03T12:45:39.635Z,15.00
2023-03-03T12:48:19.258Z,14.50
2023-03-03T12:51:01.829Z,15.90
2023-03-03T12:53:48.148Z,17.60
2023-03-03T12:56:29.350Z,16.30
2023-03-03T12:59:06.939Z,17.30
2023-03-03T13:01:55.740Z,17.40
2023-03-03T13:04:40.200Z,16.70
2023-03-03T13:07:21.552Z,19.20
2023-03-03T13:10:11.520Z,16.10
2023-03-03T13:12:52.692Z,16.20
2023-03-03T13:15:33.281Z,18.20
2023-03-03T13:18:27.829Z,14.80
2023-03-03T13:21:06.329Z,14.60
2023-03-03T13:26:26.826Z,17.30
2023-03-03T13:29:11.986Z,16.10
2023-03-03T13:31:52.359Z,15.70
2023-03-03T13:34:39.240Z,15.40
2023-03-03T13:37:22.863Z,15.00
2023-03-03T13:40:03.913Z,16.60
2023-03-03T13:42:43.713Z,14.30
2023-03-03T13:45:25.410Z,14.50
2023-03-03T13:48:09.142Z,13.60
2023-03-03T13:50:49.677Z,13.80
2023-03-03T13:53:39.930Z,15.00
2023-03-03T13:56:26.727Z,14.20
2023-03-03T13:59:10.320Z,14.40
2023-03-03T14:01:56.723Z,14.40
2023-03-03T14:04:53.270Z,16.60
2023-03-03T14:07:36.310Z,16.30
2023-03-03T14:10:17.246Z,14.50
2023-03-03T14:12:59.611Z,14.00
2023-03-03T14:15:37.247Z,15.00
2023-03-03T14:18:23.911Z,15.40
2023-03-03T14:21:00.962Z,13.10
2023-03-03T14:23:46.641Z,13.90
2023-03-03T14:26:20.221Z,14.10
2023-03-03T14:29:05.567Z,15.10
2023-03-03T14:31:44.717Z,15.80
2023-03-03T14:34:37.418Z,14.80
2023-03-03T14:37:25.583Z,15.80
2023-03-03T14:40:18.027Z,15.80
2023-03-03T14:42:56.555Z,14.30
2023-03-03T14:48:20.064Z,15.00
2023-03-03T14:51:05.046Z,15.00
2023-03-03T14:53:41.417Z,15.50
2023-03-03T14:56:25.412Z,15.80
2023-03-03T14:59:19.638Z,13.30
2023-03-03T15:02:05.034Z,14.80
2023-03-03T15:04:39.873Z,13.40
2023-03-03T15:07:30.696Z,15.40
2023-03-03T15:10:05.252Z,13.90
2023-03-03T15:12:42.629Z,15.60
2023-03-03T15:15:21.861Z,13.50
2023-03-03T15:18:03.798Z,12.70
2023-03-03T15:20:44.132Z,12.90
2023-03-03T15:23:37.661Z,13.00
2023-03-03T15:26:19.902Z,13.80
2023-03-03T15:29:06.728Z,13.60
2023-03-03T15:31:52.536Z,13.00
2023-03-03T15:34:35.716Z,13.50
2023-03-03T15:37:20.336Z,13.60
2023-03-03T15:40:04.695Z,14.60
2023-03-03T15:42:44.689Z,14.90
2023-03-03T15:45:29.018Z,14.50
2023-03-03T15:48:29.259Z,15.40
2023-03-03T15:51:16.501Z,13.50
2023-03-03T15:54:12.387Z,14.50
2023-03-03T15:56:53.509Z,14.20
2023-03-03T15:59:45.481Z,14.10
2023-03-03T16:02:25.489Z,16.80
2023-03-03T16:05:05.200Z,16.50
2023-03-03T16:07:49.391Z,14.50
2023-03-03T16:10:31.641Z,14.70
2023-03-03T16:13:23.245Z,16.00
2023-03-03T16:16:04.836Z,17.10
2023-03-03T16:18:56.286Z,16.60
2023-03-03T16:22:03.716Z,15.30
2023-03-03T16:24:50.386Z,13.80
2023-03-03T16:27:32.692Z,15.40
2023-03-03T16:30:19.493Z,15.20
2023-03-03T16:32:59.481Z,16.40
2023-03-03T16:35:39.689Z,15.20
2023-03-03T16:38:19.186Z,17.30
2023-03-03T16:40:58.268Z,18.20
2023-03-03T16:43:42.261Z,16.70
2023-03-03T16:46:31.877Z,16.10
2023-03-03T16:49:21.330Z,17.40
2023-03-03T16:52:02.771Z,15.80
2023-03-03T16:54:51.321Z,18.10
2023-03-03T16:57:35.641Z,15.80
2023-03-03T17:00:17.104Z,16.40
2023-03-03T17:03:22.558Z,16.60
2023-03-03T17:06:04.596Z,14.20
2023-03-03T17:09:02.558Z,15.00
2023-03-03T17:11:51.049Z,14.40
2023-03-03T17:14:38.820Z,14.00
2023-03-03T17:17:24.077Z,13.50
2023-03-03T17:20:19.188Z,14.10
2023-03-03T17:23:10.207Z,14.60
2023-03-03T17:25:56.022Z,13.60
2023-03-03T17:28:44.361Z,13.90
2023-03-03T17:31:32.471Z,13.30
2023-03-03T17:34:30.153Z,12.90
2023-03-03T17:37:18.396Z,12.80
2023-03-03T17:40:23.705Z,14.30
2023-03-03T17:43:05.738Z,14.70
2023-03-03T17:45:44.520Z,15.50
2023-03-03T17:48:46.262Z,16.20
2023-03-03T17:51:41.089Z,16.50
2023-03-03T17:54:37.952Z,16.20
2023-03-03T17:57:28.626Z,16.00
2023-03-03T18:00:19.269Z,16.10
2023-03-03T18:03:22.937Z,17.90
2023-03-03T18:06:17.071Z,16.60
2023-03-03T18:09:27.022Z,16.70
2023-03-03T18:12:12.541Z,16.80
2023-03-03T18:15:02.667Z,16.40
2023-03-03T18:17:49.786Z,17.50
2023-03-03T18:20:57.170Z,18.00
2023-03-03T18:23:45.832Z,16.30
2023-03-03T18:26:40.024Z,17.00
2023-03-03T18:29:24.314Z,16.50
2023-03-03T18:32:22.564Z,17.50
2023-03-03T18:35:29.954Z,15.90
2023-03-03T18:38:35.869Z,18.70
2023-03-03T18:41:24.469Z,19.20
2023-03-03T18:44:05.352Z,18.60
2023-03-03T18:47:06.001Z,18.80
2023-03-03T18:50:01.373Z,19.00
2023-03-03T18:52:42.190Z,16.60
2023-03-03T18:55:32.432Z,18.80
2023-03-03T18:58:42.507Z,19.10
2023-03-03T19:01:46.119Z,16.50
2023-03-03T19:04:34.195Z,18.20
2023-03-03T19:07:30.840Z,16.30
2023-03-03T19:10:32.296Z,17.80
2023-03-03T19:13:35.901Z,18.50
2023-03-03T19:16:31.389Z,18.20
2023-03-03T19:19:12.926Z,17.40
2023-03-03T19:21:53.450Z,17.10
2023-03-03T19:24:40.309Z,16.60
2023-03-03T19:27:35.560Z,16.50
2023-03-03T19:30:31.630Z,18.90
2023-03-03T19:33:48.315Z,18.70
2023-03-03T19:39:40.151Z,17.90
2023-03-03T19:42:27.897Z,20.00
2023-03-03T19:45:16.817Z,18.80
2023-03-03T19:50:46.552Z,17.40
2023-03-03T19:53:34.296Z,19.50
2023-03-03T19:56:25.189Z,18.40
2023-03-03T19:59:17.955Z,19.60
2023-03-03T20:02:18.511Z,18.80
2023-03-03T20:05:08.694Z,17.30
2023-03-03T20:07:53.068Z,17.10
2023-03-03T20:10:45.475Z,18.60
2023-03-03T20:13:48.183Z,17.20
2023-03-03T20:16:38.756Z,18.70
2023-03-03T20:19:32.584Z,19.00
2023-03-03T20:22:15.789Z,18.70
2023-03-03T20:25:18.618Z,17.20
2023-03-03T20:28:09.286Z,18.60
2023-03-03T20:31:08.789Z,18.60
2023-03-03T20:33:58.460Z,20.60
2023-03-03T20:36:44.128Z,20.30
2023-03-03T20:39:29.357Z,21.00
2023-03-03T20:42:12.146Z,22.60
2023-03-03T20:45:03.343Z,21.70
2023-03-03T20:47:55.228Z,22.30
2023-03-03T20:50:39.633Z,23.30
2023-03-03T20:53:27.711Z,23.90
2023-03-03T20:56:13.262Z,21.00
2023-03-03T20:59:12.668Z,21.30
2023-03-03T21:01:56.360Z,22.80
2023-03-03T21:04:38.694Z,20.10
2023-03-03T21:07:28.495Z,20.50
2023-03-03T21:10:17.842Z,18.70
2023-03-03T21:12:55.320Z,19.10
2023-03-03T21:15:37.071Z,18.80
2023-03-03T21:18:25.899Z,19.20
2023-03-03T21:21:02.924Z,20.10
2023-03-03T21:23:39.102Z,19.00
2023-03-03T21:26:15.367Z,19.90
2023-03-03T21:29:08.975Z,18.00
2023-03-03T21:31:49.857Z,18.10
2023-03-03T21:34:31.562Z,19.00
2023-03-03T21:37:07.748Z,20.70
2023-03-03T21:39:44.255Z,20.10
2023-03-03T21:42:20.429Z,22.10
2023-03-03T21:44:54.725Z,21.10
2023-03-03T21:47:31.637Z,23.40
2023-03-03T21:50:06.032Z,22.10
2023-03-03T21:52:39.712Z,22.80
2023-03-03T21:55:14.711Z,20.30
2023-03-03T21:57:48.812Z,20.50
2023-03-03T22:00:24.169Z,21.30
2023-03-03T22:02:58.149Z,22.40
2023-03-03T22:05:31.718Z,21.90
2023-03-03T22:08:06.118Z,24.50
2023-03-03T22:10:39.812Z,22.20
2023-03-03T22:13:15.170Z,21.40
2023-03-03T22:15:49.854Z,21.80
2023-03-03T22:18:23.627Z,21.50
2023-03-03T22:20:57.259Z,20.40
2023-03-03T22:23:31.155Z,21.70
2023-03-03T22:26:04.897Z,20.60
2023-03-03T22:28:38.595Z,21.30
2023-03-03T22:31:12.166Z,20.70
2023-03-03T22:33:45.808Z,20.20
2023-03-03T22:36:20.147Z,18.00
2023-03-03T22:38:53.500Z,20.00
2023-03-03T22:41:27.191Z,20.00
2023-03-03T22:44:00.781Z,19.80
2023-03-03T22:46:34.565Z,19.80
2023-03-03T22:49:08.357Z,19.30
2023-03-03T22:51:41.842Z,17.30
2023-03-03T22:54:15.462Z,17.40
2023-03-03T22:56:49.243Z,17.90
2023-03-03T22:59:22.893Z,17.30
2023-03-03T23:01:56.598Z,17.00
2023-03-03T23:04:33.508Z,16.10
2023-03-03T23:07:07.372Z,16.50
2023-03-03T23:09:41.144Z,16.60
2023-03-03T23:12:14.908Z,16.00
2023-03-03T23:14:49.089Z,18.20
2023-03-03T23:17:22.990Z,16.60
2023-03-03T23:19:56.841Z,18.40
2023-03-03T23:22:30.881Z,18.40
2023-03-03T23:25:04.397Z,16.50
2023-03-03T23:27:37.977Z,16.30
2023-03-03T23:30:15.064Z,15.90
2023-03-03T23:32:49.470Z,15.90
2023-03-03T23:35:23.487Z,14.90
2023-03-03T23:37:57.068Z,13.80
2023-03-03T23:40:30.304Z,15.50
2023-03-03T23:43:04.164Z,13.80
2023-03-03T23:45:37.529Z,15.10
2023-03-03T23:48:11.708Z,13.90
2023-03-03T23:50:45.199Z,13.70
2023-03-03T23:53:19.590Z,13.70
2023-03-03T23:55:52.845Z,13.60
2023-03-03T23:58:26.746Z,13.20
